Time;durP1;ratioP1;P1;durP2;ratioP2;P2;SDS_P1;SDS_P2;PMS_P1;PMS_P2;Temp;Humidity;BMP_temperature;BMP_pressure;BME280_temperature;BME280_humidity;BME280_pressure;Samples;Min_cycle;Max_cycle;Signal;HPM_P1;HPM_P2
2024/03/22 00:01:56;;;;;;;38.65;14.90;;;;;;;-141.50;100.00;63355.56;5029746;28;20061;-85
2024/03/22 00:04:22;;;;;;;37.97;15.30;;;;;;;-141.50;100.00;63355.56;5034703;28;20045;-85
2024/03/22 00:06:52;;;;;;;38.50;14.68;;;;;;;-141.50;100.00;63355.56;5045236;28;20057;-86
2024/03/22 00:09:18;;;;;;;31.73;13.95;;;;;;;-141.50;100.00;63355.56;5006259;28;20190;-86
2024/03/22 00:11:44;;;;;;;36.70;14.10;;;;;;;-141.50;100.00;63355.56;5011696;28;20128;-85
2024/03/22 00:14:11;;;;;;;41.70;14.82;;;;;;;-141.50;100.00;63355.56;5048093;28;20043;-86
2024/03/22 00:16:38;;;;;;;33.47;14.10;;;;;;;-141.50;100.00;63355.56;5030499;28;20072;-86
2024/03/22 00:19:04;;;;;;;34.85;14.18;;;;;;;-141.50;100.00;63355.56;5014032;28;20424;-86
2024/03/22 00:21:30;;;;;;;32.50;13.82;;;;;;;-141.50;100.00;63355.56;5027483;28;20083;-87
2024/03/22 00:23:57;;;;;;;35.28;14.73;;;;;;;-141.50;100.00;63355.56;5016944;28;20120;-86
2024/03/22 00:26:22;;;;;;;29.10;12.73;;;;;;;-141.50;100.00;63355.56;5014684;28;20033;-86
2024/03/22 00:28:49;;;;;;;32.15;14.02;;;;;;;-141.50;100.00;63355.56;5015426;28;20662;-85
2024/03/22 00:31:16;;;;;;;31.70;13.23;;;;;;;-141.50;100.00;63355.56;5018286;28;20106;-86
2024/03/22 00:33:42;;;;;;;40.05;15.10;;;;;;;-141.50;100.00;63355.56;5019608;28;20414;-86
2024/03/22 00:36:08;;;;;;;37.55;13.93;;;;;;;-141.50;100.00;63355.56;5034959;28;20106;-86
2024/03/22 00:38:35;;;;;;;34.03;13.50;;;;;;;-141.50;100.00;63355.56;5015579;28;20037;-86
2024/03/22 00:41:00;;;;;;;31.45;12.80;;;;;;;-141.50;100.00;63355.56;5032308;28;20041;-86
2024/03/22 00:43:26;;;;;;;30.50;12.43;;;;;;;-141.50;100.00;63355.56;5020809;28;20045;-86
2024/03/22 00:45:52;;;;;;;29.95;12.80;;;;;;;-141.50;100.00;63355.56;5024472;28;20052;-86
2024/03/22 00:48:18;;;;;;;31.95;12.18;;;;;;;-141.50;100.00;63355.56;5028215;28;20060;-86
2024/03/22 00:50:44;;;;;;;31.70;12.32;;;;;;;-141.50;100.00;63355.56;5022998;28;20049;-86
2024/03/22 00:53:10;;;;;;;25.85;11.75;;;;;;;-141.50;100.00;63355.56;5053289;28;20060;-87
2024/03/22 00:55:36;;;;;;;33.10;11.80;;;;;;;-141.50;100.00;63355.56;5037957;28;20055;-86
2024/03/22 00:58:04;;;;;;;28.67;11.23;;;;;;;-141.50;100.00;63355.56;5015941;28;20033;-86
2024/03/22 01:00:30;;;;;;;31.33;11.48;;;;;;;-141.50;100.00;63355.56;5034095;28;20104;-85
2024/03/22 01:02:56;;;;;;;27.08;10.95;;;;;;;-141.50;100.00;63355.56;5021359;28;20084;-86
2024/03/22 01:05:22;;;;;;;25.65;10.23;;;;;;;-141.50;100.00;63355.56;5019329;28;20033;-87
2024/03/22 01:07:50;;;;;;;32.28;10.98;;;;;;;-141.50;100.00;63355.56;5035865;28;20045;-85
2024/03/22 01:10:16;;;;;;;28.25;10.20;;;;;;;-141.50;100.00;63355.56;5034799;28;20083;-86
2024/03/22 01:12:42;;;;;;;24.40;10.05;;;;;;;-141.50;100.00;63355.56;5036473;28;20045;-88
2024/03/22 01:15:09;;;;;;;23.92;10.27;;;;;;;-141.50;100.00;63355.56;5021473;28;20139;-87
2024/03/22 01:17:35;;;;;;;26.98;10.38;;;;;;;-141.50;100.00;63355.56;5039803;28;20037;-86
2024/03/22 01:20:01;;;;;;;23.80;9.70;;;;;;;-141.50;100.00;63355.56;5036167;28;20040;-86
2024/03/22 01:22:27;;;;;;;25.50;9.75;;;;;;;-141.50;100.00;63355.56;5022821;28;20045;-85
2024/03/22 01:24:53;;;;;;;25.15;9.73;;;;;;;-141.50;100.00;63355.56;5039639;28;20447;-86
2024/03/22 01:27:22;;;;;;;23.42;9.98;;;;;;;-141.50;100.00;63355.56;5022408;28;20060;-85
2024/03/22 01:29:48;;;;;;;20.48;8.25;;;;;;;-141.50;100.00;63355.56;5038362;28;20045;-88
2024/03/22 01:32:14;;;;;;;19.60;7.97;;;;;;;-141.50;100.00;63355.56;5011154;28;20132;-87
2024/03/22 01:34:40;;;;;;;22.05;9.13;;;;;;;-141.50;100.00;63355.56;5036166;28;20059;-86
2024/03/22 01:37:06;;;;;;;22.48;8.85;;;;;;;-141.50;100.00;63355.56;5017394;28;20502;-85
2024/03/22 01:39:32;;;;;;;22.42;8.75;;;;;;;-141.50;100.00;63355.56;5017014;28;20057;-85
2024/03/22 01:41:58;;;;;;;21.50;7.60;;;;;;;-141.50;100.00;63355.56;5035147;28;20060;-87
2024/03/22 01:44:28;;;;;;;20.00;7.65;;;;;;;-141.50;100.00;63355.56;5006592;28;20116;-86
2024/03/22 01:47:17;;;;;;;17.70;6.72;;;;;;;-141.50;100.00;63355.56;5017383;28;20045;-86
2024/03/22 01:49:47;;;;;;;15.27;6.22;;;;;;;-141.50;100.00;63355.56;5017994;28;20065;-85
2024/03/22 01:52:14;;;;;;;17.85;6.40;;;;;;;-141.50;100.00;63355.56;5033605;28;20052;-85
2024/03/22 01:54:40;;;;;;;13.98;6.18;;;;;;;-141.50;100.00;63355.56;5025227;28;20057;-85
2024/03/22 01:57:06;;;;;;;17.02;6.35;;;;;;;-141.50;100.00;63355.56;5035331;28;20064;-86
2024/03/22 01:59:33;;;;;;;16.70;6.20;;;;;;;-141.50;100.00;63355.56;5041483;28;20053;-86
2024/03/22 02:02:02;;;;;;;14.35;6.43;;;;;;;-141.50;100.00;63355.56;5029850;28;20430;-85
2024/03/22 02:04:28;;;;;;;14.45;5.70;;;;;;;-141.50;100.00;63355.56;5036354;28;20052;-85
2024/03/22 02:06:55;;;;;;;15.18;6.57;;;;;;;-141.50;100.00;63355.56;5035538;28;20107;-84
2024/03/22 02:09:21;;;;;;;14.05;5.78;;;;;;;-141.50;100.00;63355.56;5009752;28;20049;-84
2024/03/22 02:11:48;;;;;;;11.63;5.95;;;;;;;-141.50;100.00;63355.56;5010667;28;20063;-87
2024/03/22 02:14:14;;;;;;;12.13;5.63;;;;;;;-141.50;100.00;63355.56;5039668;28;20120;-85
2024/03/22 02:16:42;;;;;;;12.60;5.78;;;;;;;-141.50;100.00;63355.56;5035749;28;20057;-85
2024/03/22 02:19:08;;;;;;;12.02;5.63;;;;;;;-141.50;100.00;63355.56;5035063;28;20759;-83
2024/03/22 02:21:38;;;;;;;15.02;5.93;;;;;;;-141.50;100.00;63355.56;5006406;28;20049;-86
2024/03/22 02:24:04;;;;;;;11.73;5.40;;;;;;;-141.50;100.00;63355.56;5010654;28;20045;-87
2024/03/22 02:26:30;;;;;;;11.25;5.07;;;;;;;-141.50;100.00;63355.56;5021388;28;20059;-85
2024/03/22 02:28:56;;;;;;;15.02;4.95;;;;;;;-141.50;100.00;63355.56;5021314;28;20065;-86
2024/03/22 02:31:22;;;;;;;12.43;4.80;;;;;;;-141.50;100.00;63355.56;5020770;28;20550;-85
2024/03/22 02:33:48;;;;;;;11.15;5.15;;;;;;;-141.50;100.00;63355.56;5035100;28;20049;-85
2024/03/22 02:36:14;;;;;;;10.23;4.97;;;;;;;-141.50;100.00;63355.56;5038267;28;20045;-85
2024/03/22 02:38:40;;;;;;;12.43;4.53;;;;;;;-141.50;100.00;63355.56;5034596;28;20076;-85
2024/03/22 02:41:06;;;;;;;11.82;4.65;;;;;;;-141.50;100.00;63355.56;5026821;28;20054;-85
2024/03/22 02:43:32;;;;;;;12.90;4.20;;;;;;;-141.50;100.00;63355.56;5032552;28;20511;-85
2024/03/22 02:46:00;;;;;;;14.32;4.80;;;;;;;-141.50;100.00;63355.56;4990663;28;20041;-84
2024/03/22 02:48:28;;;;;;;8.98;4.57;;;;;;;-141.50;100.00;63355.56;5032087;28;20342;-86
2024/03/22 02:50:56;;;;;;;9.18;4.55;;;;;;;-141.50;100.00;63355.56;5033139;28;20053;-86
2024/03/22 02:53:24;;;;;;;8.77;4.50;;;;;;;-141.50;100.00;63355.56;5016465;28;20466;-85
2024/03/22 02:55:53;;;;;;;8.60;4.60;;;;;;;-141.50;100.00;63355.56;5032047;28;20057;-85
2024/03/22 02:58:22;;;;;;;8.23;4.20;;;;;;;-141.50;100.00;63355.56;5001160;28;20037;-86
2024/03/22 03:00:48;;;;;;;9.82;4.22;;;;;;;-141.50;100.00;63355.56;5002818;28;20057;-86
2024/03/22 03:03:16;;;;;;;15.40;4.88;;;;;;;-141.50;100.00;63355.56;4989405;28;20048;-85
2024/03/22 03:05:45;;;;;;;11.35;4.40;;;;;;;-141.50;100.00;63355.56;5030978;28;20066;-86
2024/03/22 03:08:10;;;;;;;9.02;4.53;;;;;;;-141.50;100.00;63355.56;5006164;28;20172;-86
2024/03/22 03:10:40;;;;;;;8.10;4.35;;;;;;;-141.50;100.00;63355.56;5005632;28;20037;-85
2024/03/22 03:13:07;;;;;;;9.05;4.30;;;;;;;-141.50;100.00;63355.56;5031937;28;20044;-85
2024/03/22 03:15:33;;;;;;;8.85;4.15;;;;;;;-141.50;100.00;63355.56;5001560;28;20486;-86
2024/03/22 03:17:59;;;;;;;10.95;4.35;;;;;;;-141.50;100.00;63355.56;5021951;28;20131;-85
2024/03/22 03:20:25;;;;;;;8.95;4.28;;;;;;;-141.50;100.00;63355.56;5033811;28;20048;-85
2024/03/22 03:22:51;;;;;;;7.40;4.10;;;;;;;-141.50;100.00;63355.56;5016298;28;20081;-87
2024/03/22 03:25:17;;;;;;;10.60;4.78;;;;;;;-141.50;100.00;63355.56;5033767;28;20052;-85
2024/03/22 03:27:43;;;;;;;11.07;4.80;;;;;;;-141.50;100.00;63355.56;5021282;28;20055;-87
2024/03/22 03:30:09;;;;;;;11.15;4.82;;;;;;;-141.50;100.00;63355.56;5016201;28;20040;-85
2024/03/22 03:32:35;;;;;;;9.63;4.25;;;;;;;-141.50;100.00;63355.56;5031801;28;20144;-85
2024/03/22 03:35:01;;;;;;;10.00;4.40;;;;;;;-141.50;100.00;63355.56;5031423;28;20136;-87
2024/03/22 03:37:26;;;;;;;9.82;4.38;;;;;;;-141.50;100.00;63355.56;5038929;28;20052;-86
2024/03/22 03:39:53;;;;;;;8.48;3.83;;;;;;;-141.50;100.00;63355.56;5030352;28;20044;-85
2024/03/22 03:42:18;;;;;;;10.05;4.63;;;;;;;-141.50;100.00;63355.56;5030038;28;20044;-84
2024/03/22 03:44:44;;;;;;;9.23;4.43;;;;;;;-141.50;100.00;63355.56;5030533;28;20079;-83
2024/03/22 03:47:10;;;;;;;10.07;3.67;;;;;;;-141.50;100.00;63355.56;5031522;28;20056;-86
2024/03/22 03:49:36;;;;;;;11.23;4.55;;;;;;;-141.50;100.00;63355.56;5032626;28;20060;-85
2024/03/22 03:52:05;;;;;;;9.30;4.72;;;;;;;-141.50;100.00;63355.56;5021792;28;20088;-88
2024/03/22 03:54:31;;;;;;;10.55;4.78;;;;;;;-141.50;100.00;63355.56;5013124;28;20041;-86
2024/03/22 03:56:56;;;;;;;7.45;4.00;;;;;;;-141.50;100.00;63355.56;5021999;28;20071;-86
2024/03/22 03:59:23;;;;;;;8.95;4.47;;;;;;;-141.50;100.00;63355.56;5032753;28;20057;-85
2024/03/22 04:01:49;;;;;;;8.65;4.20;;;;;;;-141.50;100.00;63355.56;5031209;28;20053;-87
2024/03/22 04:04:15;;;;;;;12.00;4.07;;;;;;;-141.50;100.00;63355.56;5029002;28;20052;-87
2024/03/22 04:06:43;;;;;;;9.00;4.70;;;;;;;-141.50;100.00;63355.56;5017981;28;20105;-85
2024/03/22 04:09:09;;;;;;;9.80;4.30;;;;;;;-141.50;100.00;63355.56;4996918;28;20151;-86
2024/03/22 04:11:35;;;;;;;10.63;3.50;;;;;;;-141.50;100.00;63355.56;5035893;28;20114;-86
2024/03/22 04:14:01;;;;;;;8.75;4.28;;;;;;;-141.50;100.00;63355.56;5033390;28;20411;-86
2024/03/22 04:16:27;;;;;;;9.57;3.80;;;;;;;-141.50;100.00;63355.56;5022462;28;20053;-88
2024/03/22 04:18:53;;;;;;;7.05;3.88;;;;;;;-141.50;100.00;63355.56;5013199;28;20064;-87
2024/03/22 04:21:18;;;;;;;8.05;3.53;;;;;;;-141.50;100.00;63355.56;5037480;28;20151;-87
2024/03/22 04:23:45;;;;;;;7.38;3.55;;;;;;;-141.50;100.00;63355.56;5006657;28;20053;-88
2024/03/22 04:26:10;;;;;;;9.00;3.78;;;;;;;-141.50;100.00;63355.56;5021424;28;20080;-87
2024/03/22 04:28:36;;;;;;;8.40;3.83;;;;;;;-141.50;100.00;63355.56;5030379;28;20056;-86
2024/03/22 04:31:04;;;;;;;7.95;3.40;;;;;;;-141.50;100.00;63355.56;5031589;28;20093;-87
2024/03/22 04:33:32;;;;;;;10.32;3.38;;;;;;;-141.50;100.00;63355.56;5029500;28;20531;-86
2024/03/22 04:35:59;;;;;;;9.20;4.22;;;;;;;-141.50;100.00;63355.56;5026668;28;20057;-86
2024/03/22 04:38:25;;;;;;;8.55;3.72;;;;;;;-141.50;100.00;63355.56;4986277;28;20049;-86
2024/03/22 04:41:14;;;;;;;9.93;3.90;;;;;;;-141.50;100.00;63355.56;5012127;28;20096;-87
2024/03/22 04:44:01;;;;;;;12.23;4.05;;;;;;;-141.50;100.00;63355.56;4980354;28;20054;-87
2024/03/22 04:46:31;;;;;;;10.80;4.75;;;;;;;-141.50;100.00;63355.56;5010425;28;20052;-86
2024/03/22 04:48:57;;;;;;;7.45;3.97;;;;;;;-141.50;100.00;63355.56;4997376;28;20053;-87
2024/03/22 04:51:23;;;;;;;11.75;5.07;;;;;;;-141.50;100.00;63355.56;5014776;28;20491;-85
2024/03/22 04:53:48;;;;;;;12.43;4.50;;;;;;;-141.50;100.00;63355.56;5022738;28;20057;-85
2024/03/22 04:56:14;;;;;;;12.38;5.25;;;;;;;-141.50;100.00;63355.56;5017828;28;20525;-86
2024/03/22 04:58:40;;;;;;;11.68;5.13;;;;;;;-141.50;100.00;63355.56;5024718;28;20042;-86
2024/03/22 05:01:11;;;;;;;10.13;4.72;;;;;;;-141.50;100.00;63355.56;4996593;28;20055;-84
2024/03/22 05:03:41;;;;;;;12.70;5.22;;;;;;;-141.50;100.00;63355.56;4990025;28;20045;-86
2024/03/22 05:06:07;;;;;;;12.10;5.20;;;;;;;-141.50;100.00;63355.56;4989429;28;20459;-86
2024/03/22 05:08:33;;;;;;;11.77;5.68;;;;;;;-141.50;100.00;63355.56;4999919;28;20325;-85
2024/03/22 05:10:59;;;;;;;12.77;4.97;;;;;;;-141.50;100.00;63355.56;5028380;28;20064;-86
2024/03/22 05:13:29;;;;;;;12.15;5.18;;;;;;;-141.50;100.00;63355.56;5011477;28;20041;-85
2024/03/22 05:15:55;;;;;;;10.30;4.70;;;;;;;-141.50;100.00;63355.56;4993571;28;20084;-84
2024/03/22 05:18:23;;;;;;;9.55;4.20;;;;;;;-141.50;100.00;63355.56;5028955;28;20111;-86
2024/03/22 05:20:49;;;;;;;10.88;4.78;;;;;;;-141.50;100.00;63355.56;5028111;28;20131;-86
2024/03/22 05:23:16;;;;;;;11.80;4.78;;;;;;;-141.50;100.00;63355.56;5011981;28;20044;-84
2024/03/22 05:25:42;;;;;;;12.98;4.85;;;;;;;-141.50;100.00;63355.56;5044060;28;20098;-86
2024/03/22 05:28:11;;;;;;;13.73;5.55;;;;;;;-141.50;100.00;63355.56;5027405;28;20057;-87
2024/03/22 05:30:37;;;;;;;15.48;5.32;;;;;;;-141.50;100.00;63355.56;5019131;28;20056;-87
2024/03/22 05:33:03;;;;;;;9.77;4.43;;;;;;;-141.50;100.00;63355.56;5033296;28;20171;-87
2024/03/22 05:35:31;;;;;;;11.60;4.90;;;;;;;-141.50;100.00;63355.56;5032722;28;20037;-87
2024/03/22 05:37:58;;;;;;;11.13;4.35;;;;;;;-141.50;100.00;63355.56;4995097;28;20045;-85
2024/03/22 05:40:23;;;;;;;10.73;4.72;;;;;;;-141.50;100.00;63355.56;5018914;28;20064;-84
2024/03/22 05:42:49;;;;;;;9.43;4.65;;;;;;;-141.50;100.00;63355.56;5038542;28;20076;-84
2024/03/22 05:45:15;;;;;;;10.55;4.82;;;;;;;-141.50;100.00;63355.56;5029087;28;20056;-86
2024/03/22 05:47:41;;;;;;;11.45;5.00;;;;;;;-141.50;100.00;63355.56;5032356;28;20049;-84
2024/03/22 05:50:08;;;;;;;11.45;4.55;;;;;;;-141.50;100.00;63355.56;5034956;28;20119;-84
2024/03/22 05:52:34;;;;;;;10.20;4.82;;;;;;;-141.50;100.00;63355.56;5039269;28;20029;-85
2024/03/22 05:55:00;;;;;;;10.38;5.13;;;;;;;-141.50;100.00;63355.56;5026125;28;20046;-84
2024/03/22 05:57:26;;;;;;;8.98;4.53;;;;;;;-141.50;100.00;63355.56;5036136;28;20086;-87
2024/03/22 05:59:53;;;;;;;11.32;5.53;;;;;;;-141.50;100.00;63355.56;5004032;28;20064;-86
2024/03/22 06:02:19;;;;;;;9.68;4.97;;;;;;;-141.50;100.00;63355.56;4985829;28;20069;-85
2024/03/22 06:04:48;;;;;;;11.27;5.22;;;;;;;-141.50;100.00;63355.56;5014176;28;20048;-84
2024/03/22 06:07:16;;;;;;;9.98;4.85;;;;;;;-141.50;100.00;63355.56;5031537;28;20061;-83
2024/03/22 06:09:48;;;;;;;14.77;5.50;;;;;;;-141.50;100.00;63355.56;5020319;28;20144;-83
2024/03/22 06:12:15;;;;;;;8.60;4.57;;;;;;;-141.50;100.00;63355.56;5032175;28;20080;-83
2024/03/22 06:14:44;;;;;;;9.98;4.97;;;;;;;-141.50;100.00;63355.56;5024860;28;20539;-76
2024/03/22 06:17:10;;;;;;;16.73;5.47;;;;;;;-141.50;100.00;63355.56;5019122;28;20103;-81
2024/03/22 06:19:37;;;;;;;10.65;5.55;;;;;;;-141.50;100.00;63355.56;5026404;28;20061;-82
2024/03/22 06:22:03;;;;;;;17.80;5.75;;;;;;;-141.50;100.00;63355.56;5016843;28;20056;-80
2024/03/22 06:24:29;;;;;;;12.13;5.75;;;;;;;-141.50;100.00;63355.56;5034697;28;20530;-79
2024/03/22 06:26:55;;;;;;;11.15;5.57;;;;;;;-141.50;100.00;63355.56;5026755;28;20053;-82
2024/03/22 06:29:21;;;;;;;16.90;6.22;;;;;;;-141.50;100.00;63355.56;5028845;28;20088;-81
2024/03/22 06:31:47;;;;;;;12.80;5.28;;;;;;;-141.50;100.00;63355.56;5034792;28;20112;-80
2024/03/22 06:34:13;;;;;;;11.93;5.75;;;;;;;-141.50;100.00;63355.56;5032149;28;20147;-82
2024/03/22 06:36:39;;;;;;;13.48;6.30;;;;;;;-141.50;100.00;63355.56;5030972;28;20065;-83
2024/03/22 06:39:06;;;;;;;11.90;5.63;;;;;;;-141.50;100.00;63355.56;5032673;28;20082;-83
2024/03/22 06:41:32;;;;;;;14.50;5.80;;;;;;;-141.50;100.00;63355.56;5028756;28;20061;-83
2024/03/22 06:44:01;;;;;;;14.75;5.97;;;;;;;-141.50;100.00;63355.56;5008326;28;20046;-82
2024/03/22 06:46:27;;;;;;;13.32;6.22;;;;;;;-141.50;100.00;63355.56;5025629;28;20052;-82
2024/03/22 06:48:54;;;;;;;11.73;5.22;;;;;;;-141.50;100.00;63355.56;5027625;28;20053;-81
2024/03/22 06:51:20;;;;;;;13.27;5.60;;;;;;;-141.50;100.00;63355.56;5028350;28;20064;-82
2024/03/22 06:53:47;;;;;;;12.57;5.57;;;;;;;-141.50;100.00;63355.56;5009687;28;20103;-83
2024/03/22 06:56:13;;;;;;;13.65;6.45;;;;;;;-141.50;100.00;63355.56;5026769;28;20053;-82
2024/03/22 06:58:39;;;;;;;14.15;5.45;;;;;;;-141.50;100.00;63355.56;5014518;28;20173;-83
2024/03/22 07:01:05;;;;;;;12.98;5.65;;;;;;;-141.50;100.00;63355.56;5012604;28;20056;-82
2024/03/22 07:03:31;;;;;;;13.43;5.82;;;;;;;-141.50;100.00;63355.56;5008586;28;20057;-83
2024/03/22 07:06:04;;;;;;;10.88;5.10;;;;;;;-141.50;100.00;63355.56;5022119;28;20057;-82
2024/03/22 07:08:29;;;;;;;14.40;5.85;;;;;;;-141.50;100.00;63355.56;5010787;28;20049;-81
2024/03/22 07:10:55;;;;;;;11.63;5.43;;;;;;;-141.50;100.00;63355.56;5027501;28;20521;-82
2024/03/22 07:13:21;;;;;;;10.90;4.97;;;;;;;-141.50;100.00;63355.56;5028044;28;20058;-81
2024/03/22 07:15:47;;;;;;;12.63;5.50;;;;;;;-141.50;100.00;63355.56;5028528;28;20145;-81
2024/03/22 07:18:14;;;;;;;13.25;4.95;;;;;;;-141.50;100.00;63355.56;5032600;28;20132;-83
2024/03/22 07:20:42;;;;;;;10.50;4.90;;;;;;;-141.50;100.00;63355.56;5029451;28;20081;-82
2024/03/22 07:23:08;;;;;;;10.45;5.38;;;;;;;-141.50;100.00;63355.56;5026100;28;20060;-81
2024/03/22 07:25:33;;;;;;;10.57;5.28;;;;;;;-141.50;100.00;63355.56;5007062;28;20053;-81
2024/03/22 07:27:59;;;;;;;10.88;4.55;;;;;;;-141.50;100.00;63355.56;5026092;28;20048;-81
2024/03/22 07:30:25;;;;;;;10.88;5.55;;;;;;;-141.50;100.00;63355.56;5029969;28;20129;-80
2024/03/22 07:32:51;;;;;;;13.77;5.90;;;;;;;-141.50;100.00;63355.56;5031382;28;20061;-80
2024/03/22 07:35:19;;;;;;;12.48;5.10;;;;;;;-141.50;100.00;63355.56;5030317;28;20048;-81
2024/03/22 07:37:45;;;;;;;12.52;4.95;;;;;;;-141.50;100.00;63355.56;5013109;28;20056;-80
2024/03/22 07:40:11;;;;;;;10.95;5.03;;;;;;;-141.50;100.00;63355.56;5023559;28;21449;-80
2024/03/22 07:42:36;;;;;;;13.85;4.95;;;;;;;-141.50;100.00;63355.56;5030944;28;20053;-82
2024/03/22 07:45:02;;;;;;;13.55;5.43;;;;;;;-141.50;100.00;63355.56;5025620;28;20507;-79
2024/03/22 07:47:29;;;;;;;14.32;5.93;;;;;;;-141.50;100.00;63355.56;5007690;28;20053;-81
2024/03/22 07:49:57;;;;;;;12.57;5.53;;;;;;;-141.50;100.00;63355.56;5025103;28;20603;-81
2024/03/22 07:52:24;;;;;;;12.63;5.63;;;;;;;-141.50;100.00;63355.56;5024608;28;20068;-81
2024/03/22 07:54:50;;;;;;;12.85;5.53;;;;;;;-141.50;100.00;63355.56;5012720;28;20045;-79
2024/03/22 07:57:15;;;;;;;13.00;5.63;;;;;;;-141.50;100.00;63355.56;5007766;28;20079;-78
2024/03/22 07:59:43;;;;;;;14.85;6.00;;;;;;;-141.50;100.00;63355.56;5022663;28;20114;-80
2024/03/22 08:02:09;;;;;;;15.27;5.97;;;;;;;-141.50;100.00;63355.56;5029374;28;20051;-83
2024/03/22 08:04:35;;;;;;;15.70;5.93;;;;;;;-141.50;100.00;63355.56;5034907;28;20078;-81
2024/03/22 08:07:01;;;;;;;12.52;5.90;;;;;;;-141.50;100.00;63355.56;5006994;28;20061;-83
2024/03/22 08:09:27;;;;;;;12.77;5.88;;;;;;;-141.50;100.00;63355.56;5031559;28;20067;-83
2024/03/22 08:11:53;;;;;;;14.55;5.70;;;;;;;-141.50;100.00;63355.56;5027495;28;20542;-82
2024/03/22 08:14:18;;;;;;;13.95;6.22;;;;;;;-141.50;100.00;63355.56;5029515;28;20074;-82
2024/03/22 08:16:44;;;;;;;12.07;5.78;;;;;;;-141.50;100.00;63355.56;5029474;28;20060;-83
2024/03/22 08:19:10;;;;;;;12.25;6.15;;;;;;;-141.50;100.00;63355.56;5014159;28;20059;-83
2024/03/22 08:21:36;;;;;;;14.18;5.97;;;;;;;-141.50;100.00;63355.56;5020282;28;20064;-83
2024/03/22 08:24:02;;;;;;;14.38;6.60;;;;;;;-141.50;100.00;63355.56;5021308;28;20063;-84
2024/03/22 08:26:28;;;;;;;14.20;5.63;;;;;;;-141.50;100.00;63355.56;5031402;28;20056;-82
2024/03/22 08:28:54;;;;;;;16.08;6.45;;;;;;;-141.50;100.00;63355.56;5030036;28;20068;-82
2024/03/22 08:31:25;;;;;;;15.27;6.50;;;;;;;-141.50;100.00;63355.56;5027197;28;20362;-83
2024/03/22 08:33:55;;;;;;;14.15;5.82;;;;;;;-141.50;100.00;63355.56;5026072;28;20089;-83
2024/03/22 08:36:23;;;;;;;13.35;5.78;;;;;;;-141.50;100.00;63355.56;5042446;28;20057;-83
2024/03/22 08:38:49;;;;;;;18.33;6.40;;;;;;;-141.50;100.00;63355.56;5010262;28;20071;-83
2024/03/22 08:41:15;;;;;;;13.63;5.57;;;;;;;-141.50;100.00;63355.56;5028153;28;20048;-83
2024/03/22 08:43:41;;;;;;;15.52;6.13;;;;;;;-141.50;100.00;63355.56;5009161;28;20056;-83
2024/03/22 08:46:07;;;;;;;13.95;5.93;;;;;;;-141.50;100.00;63355.56;5026902;28;20071;-83
2024/03/22 08:48:33;;;;;;;14.18;5.88;;;;;;;-141.50;100.00;63355.56;5008959;28;20121;-83
2024/03/22 08:50:59;;;;;;;16.42;5.40;;;;;;;-141.50;100.00;63355.56;5017686;28;20611;-83
2024/03/22 08:53:25;;;;;;;14.65;6.30;;;;;;;-141.50;100.00;63355.56;5015840;28;20052;-81
2024/03/22 08:55:50;;;;;;;14.45;6.32;;;;;;;-141.50;100.00;63355.56;5031184;28;20056;-83
2024/03/22 08:58:17;;;;;;;16.50;5.78;;;;;;;-141.50;100.00;63355.56;5032905;28;20098;-83
2024/03/22 09:00:44;;;;;;;15.45;5.60;;;;;;;-141.50;100.00;63355.56;5011430;28;20164;-84
2024/03/22 09:03:10;;;;;;;14.10;5.80;;;;;;;-141.50;100.00;63355.56;5006644;28;20131;-83
2024/03/22 09:05:38;;;;;;;12.60;5.20;;;;;;;-141.50;100.00;63355.56;5017545;28;20061;-84
2024/03/22 09:08:04;;;;;;;13.38;5.82;;;;;;;-141.50;100.00;63355.56;5032133;28;20454;-82
2024/03/22 09:10:30;;;;;;;15.18;6.60;;;;;;;-141.50;100.00;63355.56;5021685;28;20171;-82
2024/03/22 09:12:56;;;;;;;21.60;6.40;;;;;;;-141.50;100.00;63355.56;5042039;28;20133;-83
2024/03/22 09:15:22;;;;;;;15.65;6.63;;;;;;;-141.50;100.00;63355.56;5041346;28;20084;-83
2024/03/22 09:17:48;;;;;;;13.65;5.72;;;;;;;-141.50;100.00;63355.56;5034031;28;20052;-83
2024/03/22 09:20:16;;;;;;;18.00;7.20;;;;;;;-141.50;100.00;63355.56;5020665;28;20041;-83
2024/03/22 09:22:42;;;;;;;13.50;6.40;;;;;;;-141.50;100.00;63355.56;5038963;28;20120;-82
2024/03/22 09:25:08;;;;;;;15.07;6.20;;;;;;;-141.50;100.00;63355.56;5021904;28;20079;-83
2024/03/22 09:27:34;;;;;;;14.10;6.45;;;;;;;-141.50;100.00;63355.56;5039414;28;20049;-81
2024/03/22 09:30:01;;;;;;;15.57;6.53;;;;;;;-141.50;100.00;63355.56;5035974;28;20048;-83
2024/03/22 09:32:27;;;;;;;20.00;7.68;;;;;;;-141.50;100.00;63355.56;5032282;28;20199;-82
2024/03/22 09:34:53;;;;;;;20.77;7.30;;;;;;;-141.50;100.00;63355.56;5035941;28;20057;-83
2024/03/22 09:37:19;;;;;;;23.60;8.77;;;;;;;-141.50;100.00;63355.56;5030851;28;20056;-83
2024/03/22 09:39:44;;;;;;;19.25;7.72;;;;;;;-141.50;100.00;63355.56;5020815;28;20064;-82
2024/03/22 09:42:16;;;;;;;21.38;8.35;;;;;;;-141.50;100.00;63355.56;5031725;28;20212;-83
2024/03/22 09:44:47;;;;;;;19.58;8.07;;;;;;;-141.50;100.00;63355.56;5032918;28;20057;-82
2024/03/22 09:47:15;;;;;;;20.45;8.15;;;;;;;-141.50;100.00;63355.56;5015622;28;20484;-82
2024/03/22 09:49:46;;;;;;;19.13;8.32;;;;;;;-141.50;100.00;63355.56;5033854;28;20053;-84
2024/03/22 09:52:14;;;;;;;18.75;7.85;;;;;;;-141.50;100.00;63355.56;5035051;28;20051;-84
2024/03/22 09:54:43;;;;;;;16.20;7.28;;;;;;;-141.50;100.00;63355.56;5050653;28;20130;-82
2024/03/22 09:57:13;;;;;;;17.42;7.82;;;;;;;-141.50;100.00;63355.56;5054543;28;20814;-82
2024/03/22 09:59:40;;;;;;;20.88;8.10;;;;;;;-141.50;100.00;63355.56;5046143;28;20079;-83
2024/03/22 10:02:08;;;;;;;20.38;8.13;;;;;;;-141.50;100.00;63355.56;5030502;28;20072;-83
2024/03/22 10:04:35;;;;;;;15.75;7.70;;;;;;;-141.50;100.00;63355.56;5024470;28;20064;-84
2024/03/22 10:07:03;;;;;;;18.40;8.20;;;;;;;-141.50;100.00;63355.56;5025409;28;20100;-84
2024/03/22 10:09:32;;;;;;;23.10;8.65;;;;;;;-141.50;100.00;63355.56;5034789;28;20064;-83
2024/03/22 10:11:58;;;;;;;21.00;8.23;;;;;;;-141.50;100.00;63355.56;5025426;28;20057;-81
2024/03/22 10:14:27;;;;;;;14.60;6.28;;;;;;;-141.50;100.00;63355.56;5016132;28;20075;-82
2024/03/22 10:16:53;;;;;;;15.57;6.70;;;;;;;-141.50;100.00;63355.56;5014294;28;20079;-83
2024/03/22 10:19:20;;;;;;;21.60;7.85;;;;;;;-141.50;100.00;63355.56;5032075;28;20042;-82
2024/03/22 10:21:48;;;;;;;19.25;8.07;;;;;;;-141.50;100.00;63355.56;5034729;28;20152;-82
2024/03/22 10:24:14;;;;;;;18.52;7.63;;;;;;;-141.50;100.00;63355.56;5031310;28;20045;-81
2024/03/22 10:26:40;;;;;;;17.20;6.90;;;;;;;-141.50;100.00;63355.56;5029180;28;20117;-82
2024/03/22 10:29:07;;;;;;;17.83;7.70;;;;;;;-141.50;100.00;63355.56;4998986;28;20040;-83
2024/03/22 10:31:34;;;;;;;16.45;7.38;;;;;;;-141.50;100.00;63355.56;5032512;28;20124;-83
2024/03/22 10:34:03;;;;;;;18.38;7.57;;;;;;;-141.50;100.00;63355.56;5032858;28;20241;-84
2024/03/22 10:36:31;;;;;;;17.38;7.47;;;;;;;-141.50;100.00;63355.56;5022852;28;20183;-82
2024/03/22 10:38:58;;;;;;;18.40;7.90;;;;;;;-141.50;100.00;63355.56;5029994;28;20061;-83
2024/03/22 10:41:26;;;;;;;16.75;7.68;;;;;;;-141.50;100.00;63355.56;5030585;28;20515;-84
2024/03/22 10:43:52;;;;;;;19.50;8.60;;;;;;;-141.50;100.00;63355.56;5034648;28;20414;-84
2024/03/22 10:46:20;;;;;;;17.95;8.00;;;;;;;-141.50;100.00;63355.56;5034255;28;20344;-83
2024/03/22 10:48:50;;;;;;;18.48;7.35;;;;;;;-141.50;100.00;63355.56;5026995;28;20063;-83
2024/03/22 10:51:17;;;;;;;17.45;7.75;;;;;;;-141.50;100.00;63355.56;5022733;28;20053;-82
2024/03/22 10:53:44;;;;;;;20.27;8.32;;;;;;;-141.50;100.00;63355.56;5040354;28;20056;-80
2024/03/22 10:56:10;;;;;;;20.08;7.32;;;;;;;-141.50;100.00;63355.56;5033502;28;20116;-81
2024/03/22 10:58:39;;;;;;;17.67;7.30;;;;;;;-141.50;100.00;63355.56;5030155;28;20053;-86
2024/03/22 11:01:05;;;;;;;17.27;7.20;;;;;;;-141.50;100.00;63355.56;5026554;28;20487;-85